Time;durP1;ratioP1;P1;durP2;ratioP2;P2;SDS_P1;SDS_P2;PMS_P1;PMS_P2;Temp;Humidity;BMP_temperature;BMP_pressure;BME280_temperature;BME280_humidity;BME280_pressure;Samples;Min_cycle;Max_cycle;Signal;HPM_P1;HPM_P2
2022/07/14 00:00:07;;;;;;;1.38;0.65;;;26.90;57.20;;;;;;6099441;23;20009;-67
2022/07/14 00:02:33;;;;;;;0.73;0.70;;;26.80;57.10;;;;;;6124794;23;20032;-67
2022/07/14 00:04:58;;;;;;;0.68;0.60;;;26.90;57.20;;;;;;6125162;23;20002;-67
2022/07/14 00:07:24;;;;;;;0.73;0.70;;;26.90;57.20;;;;;;6124968;23;20013;-67
2022/07/14 00:09:50;;;;;;;1.00;0.82;;;26.90;57.30;;;;;;6125093;23;20010;-67
2022/07/14 00:12:15;;;;;;;0.60;0.60;;;26.90;57.40;;;;;;6124961;23;20006;-67
2022/07/14 00:14:41;;;;;;;0.60;0.60;;;26.90;57.40;;;;;;6124963;23;20343;-67
2022/07/14 00:17:06;;;;;;;1.40;0.70;;;26.90;57.30;;;;;;6124872;23;20002;-67
2022/07/14 00:19:32;;;;;;;1.05;0.63;;;26.80;57.30;;;;;;6124958;23;20054;-67
2022/07/14 00:21:58;;;;;;;0.60;0.60;;;26.90;57.40;;;;;;6125240;23;20073;-67
2022/07/14 00:24:23;;;;;;;1.00;0.73;;;26.80;57.30;;;;;;6126864;23;20006;-67
2022/07/14 00:26:49;;;;;;;0.50;0.50;;;26.80;57.20;;;;;;6126645;23;20006;-67
2022/07/14 00:29:15;;;;;;;0.70;0.70;;;26.80;57.20;;;;;;6126827;23;20347;-67
2022/07/14 00:31:40;;;;;;;1.15;0.68;;;26.80;57.20;;;;;;6126534;23;20088;-67
2022/07/14 00:34:06;;;;;;;1.27;0.60;;;26.80;57.20;;;;;;6126561;23;20446;-67
2022/07/14 00:36:32;;;;;;;0.60;0.60;;;26.80;57.20;;;;;;6126856;23;20029;-67
2022/07/14 00:38:57;;;;;;;0.82;0.82;;;26.80;57.20;;;;;;6126574;23;20025;-67
2022/07/14 00:41:23;;;;;;;0.70;0.70;;;26.80;57.10;;;;;;6126733;23;20039;-67
2022/07/14 00:43:49;;;;;;;0.60;0.60;;;26.80;57.20;;;;;;6100763;23;20009;-67
2022/07/14 00:46:14;;;;;;;1.25;0.70;;;26.80;57.20;;;;;;6126536;23;20013;-67
2022/07/14 00:48:40;;;;;;;1.15;0.80;;;26.80;57.20;;;;;;6126527;23;20040;-67
2022/07/14 00:51:06;;;;;;;0.95;0.82;;;26.80;57.20;;;;;;6126280;23;20021;-67
2022/07/14 00:53:31;;;;;;;0.70;0.70;;;26.80;57.20;;;;;;6126690;23;20002;-67
2022/07/14 00:55:57;;;;;;;0.70;0.60;;;26.80;57.20;;;;;;6126171;23;19998;-67
2022/07/14 00:58:23;;;;;;;0.70;0.70;;;26.70;57.10;;;;;;6126530;23;20006;-67
2022/07/14 01:00:49;;;;;;;1.00;0.90;;;26.80;57.20;;;;;;6126475;23;20002;-67
2022/07/14 01:03:14;;;;;;;0.82;0.82;;;26.70;57.10;;;;;;6126456;23;20045;-67
2022/07/14 01:05:40;;;;;;;1.10;0.90;;;26.70;57.00;;;;;;6126695;23;20002;-67
2022/07/14 01:08:06;;;;;;;1.00;0.90;;;26.70;57.10;;;;;;6126323;23;20008;-67
2022/07/14 01:10:31;;;;;;;0.77;0.77;;;26.70;57.10;;;;;;6126451;23;20002;-67
2022/07/14 01:13:02;;;;;;;1.10;1.00;;;26.70;57.10;;;;;;6100266;23;20342;-67
2022/07/14 01:15:27;;;;;;;0.90;0.90;;;26.70;57.10;;;;;;6126463;23;20006;-67
2022/07/14 01:17:53;;;;;;;0.70;0.70;;;26.70;57.10;;;;;;6126276;23;20002;-67
2022/07/14 01:20:19;;;;;;;0.73;0.73;;;26.70;57.10;;;;;;6126487;23;20021;-67
2022/07/14 01:22:46;;;;;;;1.05;0.90;;;26.70;57.10;;;;;;6126765;23;20010;-67
2022/07/14 01:25:12;;;;;;;0.85;0.82;;;26.70;57.10;;;;;;6126109;23;20010;-67
2022/07/14 01:27:38;;;;;;;0.82;0.82;;;26.70;57.10;;;;;;6126465;23;20013;-67
2022/07/14 01:30:04;;;;;;;1.85;0.93;;;26.70;57.10;;;;;;6126102;23;20013;-67
2022/07/14 01:32:30;;;;;;;0.90;0.90;;;26.70;57.10;;;;;;6126375;23;20076;-67
2022/07/14 01:34:56;;;;;;;0.70;0.70;;;26.70;57.10;;;;;;6125940;23;20030;-67
2022/07/14 01:37:21;;;;;;;1.00;1.00;;;26.70;57.10;;;;;;6126231;23;20380;-67
2022/07/14 01:39:47;;;;;;;1.00;1.00;;;26.70;57.10;;;;;;6126477;23;20013;-67
2022/07/14 01:42:13;;;;;;;0.80;0.80;;;26.70;57.10;;;;;;6125860;23;20017;-67
2022/07/14 01:44:39;;;;;;;0.80;0.80;;;26.70;57.10;;;;;;6126151;23;20077;-67
2022/07/14 01:47:04;;;;;;;0.70;0.70;;;26.70;57.10;;;;;;6126361;23;20013;-67
2022/07/14 01:49:30;;;;;;;1.80;0.80;;;26.60;57.00;;;;;;6126220;23;20485;-67
2022/07/14 01:51:55;;;;;;;0.70;0.70;;;26.60;57.10;;;;;;6125561;23;20010;-67
2022/07/14 01:54:21;;;;;;;1.27;0.88;;;26.60;57.00;;;;;;6126126;23;19998;-67
2022/07/14 01:56:47;;;;;;;0.75;0.75;;;26.60;57.00;;;;;;6125799;23;20002;-67
2022/07/14 01:59:12;;;;;;;0.77;0.77;;;26.60;57.00;;;;;;6125986;23;20550;-67
2022/07/14 02:01:41;;;;;;;1.00;1.00;;;26.60;57.00;;;;;;6126040;23;20446;-67
2022/07/14 02:04:17;;;;;;;0.82;0.82;;;26.60;57.00;;;;;;6125859;23;20006;-67
2022/07/14 02:06:54;;;;;;;0.80;0.80;;;26.60;57.00;;;;;;6125906;23;20005;-67
2022/07/14 02:09:19;;;;;;;0.88;0.88;;;26.60;57.10;;;;;;6099756;23;20319;-67
2022/07/14 02:14:30;;;;;;;0.65;0.65;;;26.60;57.00;;;;;;6104012;23;20012;-67
2022/07/14 02:16:56;;;;;;;0.98;0.70;;;26.60;57.10;;;;;;6125846;23;20009;-67
2022/07/14 02:19:23;;;;;;;0.80;0.70;;;26.60;57.10;;;;;;6125858;23;20396;-67
2022/07/14 02:21:49;;;;;;;0.60;0.60;;;26.60;57.00;;;;;;6125784;23;20469;-67
2022/07/14 02:24:15;;;;;;;1.25;1.00;;;26.60;57.10;;;;;;6125796;23;20002;-67
2022/07/14 02:26:41;;;;;;;0.60;0.60;;;26.50;57.00;;;;;;6099494;23;20013;-67
2022/07/14 02:29:07;;;;;;;0.70;0.70;;;26.60;57.10;;;;;;6125709;23;20002;-67
2022/07/14 02:31:33;;;;;;;1.20;0.80;;;26.60;57.10;;;;;;6125727;23;20014;-67
2022/07/14 02:33:59;;;;;;;0.73;0.73;;;26.60;57.10;;;;;;6099619;23;20456;-67
2022/07/14 02:36:25;;;;;;;0.60;0.60;;;26.60;57.10;;;;;;6125670;23;20025;-67
2022/07/14 02:38:51;;;;;;;0.70;0.70;;;26.60;57.00;;;;;;6125784;23;19999;-67
2022/07/14 02:41:17;;;;;;;0.60;0.60;;;26.60;57.00;;;;;;6125336;23;20138;-67
2022/07/14 02:43:42;;;;;;;0.80;0.70;;;26.50;57.00;;;;;;6125688;23;20010;-67
2022/07/14 02:46:08;;;;;;;0.70;0.70;;;26.50;57.00;;;;;;6125087;23;20016;-67
2022/07/14 02:48:34;;;;;;;0.80;0.70;;;26.50;57.00;;;;;;6125421;23;20053;-67
2022/07/14 02:51:01;;;;;;;0.98;0.70;;;26.50;57.00;;;;;;6125155;23;20018;-67
2022/07/14 02:53:26;;;;;;;0.70;0.70;;;26.50;57.00;;;;;;6099700;23;20006;-67
2022/07/14 02:55:52;;;;;;;0.80;0.80;;;26.50;57.00;;;;;;6099418;23;20022;-67
2022/07/14 02:58:18;;;;;;;0.60;0.60;;;26.50;57.00;;;;;;6125440;23;20005;-67
2022/07/14 03:00:43;;;;;;;0.82;0.82;;;26.50;57.00;;;;;;6125431;23;20080;-67
2022/07/14 03:03:09;;;;;;;0.90;0.90;;;26.50;57.00;;;;;;6125411;23;20081;-67
2022/07/14 03:05:35;;;;;;;0.68;0.68;;;26.50;57.10;;;;;;6125417;23;20008;-67
2022/07/14 03:08:01;;;;;;;0.80;0.80;;;26.50;57.00;;;;;;6125179;23;20002;-67
2022/07/14 03:10:26;;;;;;;0.60;0.60;;;26.50;57.00;;;;;;6125205;23;20337;-67
2022/07/14 03:12:52;;;;;;;0.75;0.75;;;26.50;57.00;;;;;;6125417;23;20457;-67
2022/07/14 03:15:18;;;;;;;0.70;0.70;;;26.50;57.00;;;;;;6125092;23;19997;-67
2022/07/14 03:17:44;;;;;;;0.60;0.60;;;26.50;57.10;;;;;;6125498;23;19998;-67
2022/07/14 03:20:12;;;;;;;0.50;0.50;;;26.50;57.00;;;;;;6125537;23;20002;-67
2022/07/14 03:22:38;;;;;;;0.57;0.57;;;26.50;57.00;;;;;;6125373;23;20002;-67
2022/07/14 03:25:05;;;;;;;1.30;0.70;;;26.50;57.00;;;;;;6124975;23;20016;-67
2022/07/14 03:27:31;;;;;;;0.85;0.65;;;26.50;57.00;;;;;;6125668;23;20002;-67
2022/07/14 03:29:57;;;;;;;0.70;0.70;;;26.50;57.00;;;;;;6125303;23;20068;-67
2022/07/14 03:32:22;;;;;;;0.70;0.63;;;26.50;57.00;;;;;;6125178;23;20010;-67
2022/07/14 03:34:48;;;;;;;0.60;0.60;;;26.50;57.00;;;;;;6125282;23;20033;-67
2022/07/14 03:37:13;;;;;;;0.60;0.60;;;26.50;57.00;;;;;;6125071;23;20518;-67
2022/07/14 03:39:39;;;;;;;0.60;0.60;;;26.40;56.90;;;;;;6125104;23;20006;-67
2022/07/14 03:42:05;;;;;;;1.00;0.90;;;26.40;56.90;;;;;;6125014;23;20013;-67
2022/07/14 03:44:31;;;;;;;1.25;0.70;;;26.40;57.00;;;;;;6125225;23;20080;-67
2022/07/14 03:46:56;;;;;;;0.70;0.70;;;26.40;56.90;;;;;;6125343;23;20002;-67
2022/07/14 03:49:22;;;;;;;0.70;0.70;;;26.40;56.90;;;;;;6125021;23;20038;-67
2022/07/14 03:51:48;;;;;;;0.63;0.63;;;26.40;56.90;;;;;;6124776;23;20138;-67
2022/07/14 03:54:13;;;;;;;0.70;0.70;;;26.40;56.90;;;;;;6124907;23;20002;-67
2022/07/14 03:56:39;;;;;;;2.80;0.80;;;26.40;56.90;;;;;;6125271;23;20004;-67
2022/07/14 03:59:05;;;;;;;0.93;0.70;;;26.40;56.90;;;;;;6101188;23;20004;-67
2022/07/14 04:01:30;;;;;;;0.82;0.70;;;26.40;56.90;;;;;;6127029;23;20451;-67
2022/07/14 04:03:56;;;;;;;0.88;0.80;;;26.40;56.90;;;;;;6127012;23;20435;-67
2022/07/14 04:06:22;;;;;;;0.80;0.60;;;26.40;56.90;;;;;;6127071;23;20009;-67
2022/07/14 04:08:47;;;;;;;0.70;0.70;;;26.40;56.90;;;;;;6126699;23;20498;-67
2022/07/14 04:11:13;;;;;;;1.05;0.75;;;26.40;56.90;;;;;;6126571;23;20086;-67
2022/07/14 04:13:39;;;;;;;1.25;0.70;;;26.40;56.90;;;;;;6127164;23;20077;-67
2022/07/14 04:16:05;;;;;;;0.93;0.73;;;26.40;56.90;;;;;;6126876;23;20037;-67
2022/07/14 04:18:31;;;;;;;0.55;0.55;;;26.30;56.90;;;;;;6127325;23;20423;-67
2022/07/14 04:20:56;;;;;;;0.50;0.50;;;26.40;56.80;;;;;;6126847;23;20002;-67
2022/07/14 04:23:22;;;;;;;0.90;0.70;;;26.30;56.80;;;;;;6126574;23;20090;-67
2022/07/14 04:25:50;;;;;;;1.23;0.70;;;26.30;56.80;;;;;;6126934;23;20426;-67
2022/07/14 04:28:16;;;;;;;0.52;0.52;;;26.30;56.80;;;;;;6126819;23;19998;-67
2022/07/14 04:30:42;;;;;;;1.38;0.80;;;26.30;56.80;;;;;;6126817;23;20005;-67
2022/07/14 04:33:10;;;;;;;0.88;0.70;;;26.30;56.80;;;;;;6126432;23;20013;-67
2022/07/14 04:35:37;;;;;;;0.85;0.63;;;26.30;56.90;;;;;;6126751;23;20386;-67
2022/07/14 04:38:02;;;;;;;0.68;0.50;;;26.30;56.80;;;;;;6100892;23;20002;-67
2022/07/14 04:40:29;;;;;;;0.88;0.60;;;26.30;56.80;;;;;;6126735;23;20383;-67
2022/07/14 04:42:54;;;;;;;0.70;0.50;;;26.30;56.80;;;;;;6126783;23;20002;-67
2022/07/14 04:45:22;;;;;;;1.13;0.80;;;26.30;56.70;;;;;;6126686;23;20010;-67
2022/07/14 04:47:48;;;;;;;1.67;0.55;;;26.20;56.60;;;;;;6126674;23;20002;-67
2022/07/14 04:52:58;;;;;;;0.55;0.55;;;26.30;56.80;;;;;;6068688;23;20045;-67
2022/07/14 04:55:23;;;;;;;1.20;0.70;;;26.30;56.70;;;;;;6066969;23;20002;-67
2022/07/14 04:57:49;;;;;;;0.75;0.60;;;26.30;56.70;;;;;;6068533;23;20467;-67
2022/07/14 05:00:15;;;;;;;0.65;0.57;;;26.20;56.70;;;;;;6068464;23;20034;-67
2022/07/14 05:02:40;;;;;;;1.15;0.70;;;26.20;56.70;;;;;;6068340;23;20030;-67
2022/07/14 05:05:06;;;;;;;0.60;0.55;;;26.30;56.90;;;;;;6068223;23;20030;-67
2022/07/14 05:07:33;;;;;;;0.85;0.60;;;26.20;56.70;;;;;;6067248;23;20431;-67
2022/07/14 05:09:58;;;;;;;1.20;0.63;;;26.20;56.70;;;;;;6067980;23;20463;-67
2022/07/14 05:12:24;;;;;;;0.57;0.57;;;26.20;56.80;;;;;;6068248;23;19998;-67
2022/07/14 05:14:49;;;;;;;0.80;0.60;;;26.20;56.70;;;;;;6068299;23;19999;-67
2022/07/14 05:17:15;;;;;;;1.27;0.70;;;26.20;56.70;;;;;;6068369;23;20003;-67
2022/07/14 05:19:41;;;;;;;0.50;0.50;;;26.20;56.70;;;;;;6068273;23;20070;-67
2022/07/14 05:22:06;;;;;;;1.25;0.70;;;26.20;56.70;;;;;;6068045;23;20014;-67
2022/07/14 05:24:32;;;;;;;0.90;0.50;;;26.20;56.80;;;;;;6068404;23;20384;-67
2022/07/14 05:26:58;;;;;;;0.90;0.75;;;26.20;56.80;;;;;;6068261;23;20010;-67
2022/07/14 05:29:25;;;;;;;2.03;0.73;;;26.20;56.90;;;;;;6068190;23;20440;-67
2022/07/14 05:31:51;;;;;;;1.05;0.82;;;26.20;56.70;;;;;;6068015;23;20013;-67
2022/07/14 05:34:17;;;;;;;0.60;0.60;;;26.20;56.90;;;;;;6067948;23;20055;-67
2022/07/14 05:36:44;;;;;;;1.02;0.80;;;26.20;56.80;;;;;;6068150;23;20072;-67
2022/07/14 05:39:11;;;;;;;1.23;0.60;;;26.20;56.90;;;;;;6068192;23;20006;-67
2022/07/14 05:41:36;;;;;;;0.57;0.50;;;26.20;56.80;;;;;;6067998;23;20065;-67
2022/07/14 05:44:02;;;;;;;0.60;0.60;;;26.20;56.70;;;;;;6068216;23;20073;-67
2022/07/14 05:46:28;;;;;;;2.15;0.60;;;26.20;56.90;;;;;;6067926;23;20339;-67
2022/07/14 05:48:53;;;;;;;0.93;0.70;;;26.20;56.80;;;;;;6068013;23;20010;-67
2022/07/14 05:51:20;;;;;;;0.60;0.52;;;26.20;56.80;;;;;;6107134;23;20045;-67
2022/07/14 05:53:46;;;;;;;0.70;0.70;;;26.20;56.90;;;;;;6126177;23;20330;-67
2022/07/14 05:56:12;;;;;;;0.52;0.50;;;26.20;56.80;;;;;;6125769;23;20081;-67
2022/07/14 05:58:38;;;;;;;0.50;0.50;;;26.10;56.70;;;;;;6125929;23;20002;-67
2022/07/14 06:01:04;;;;;;;0.65;0.65;;;26.20;56.90;;;;;;6126206;23;20002;-67
2022/07/14 06:03:30;;;;;;;1.17;0.60;;;26.10;56.80;;;;;;6099920;23;20002;-67
2022/07/14 06:06:01;;;;;;;0.52;0.50;;;26.20;56.90;;;;;;6100065;23;20002;-67
2022/07/14 06:08:28;;;;;;;0.70;0.60;;;26.10;56.90;;;;;;6100033;23;20061;-66
2022/07/14 06:10:55;;;;;;;0.60;0.60;;;26.20;56.90;;;;;;6125952;23;20065;-67
2022/07/14 06:13:25;;;;;;;0.98;0.60;;;26.10;56.80;;;;;;6125759;23;20025;-67
2022/07/14 06:15:50;;;;;;;0.47;0.43;;;26.20;57.00;;;;;;6125855;23;20443;-67
2022/07/14 06:18:16;;;;;;;0.68;0.50;;;26.10;56.90;;;;;;6125568;23;19998;-67
2022/07/14 06:20:42;;;;;;;0.47;0.40;;;26.10;56.90;;;;;;6125731;23;20423;-66
2022/07/14 06:23:09;;;;;;;0.90;0.63;;;26.10;56.90;;;;;;6125693;23;20427;-66
2022/07/14 06:25:36;;;;;;;0.60;0.60;;;26.10;56.90;;;;;;6100337;23;20012;-67
2022/07/14 06:28:02;;;;;;;1.05;0.52;;;26.10;56.90;;;;;;6125750;23;20012;-66
2022/07/14 06:30:28;;;;;;;0.90;0.60;;;26.10;56.90;;;;;;6125560;23;20025;-67
2022/07/14 06:32:53;;;;;;;0.60;0.55;;;26.10;57.00;;;;;;6125467;23;20044;-67
2022/07/14 06:35:19;;;;;;;0.55;0.55;;;26.10;57.00;;;;;;6125516;23;20002;-67
2022/07/14 06:37:45;;;;;;;0.47;0.47;;;26.10;57.00;;;;;;6125706;23;19998;-67
2022/07/14 06:40:10;;;;;;;0.50;0.50;;;26.10;57.00;;;;;;6125753;23;20077;-67
2022/07/14 06:42:36;;;;;;;0.85;0.60;;;26.10;57.00;;;;;;6125584;23;20012;-67
2022/07/14 06:45:02;;;;;;;0.40;0.40;;;26.10;57.00;;;;;;6125544;23;20006;-67
2022/07/14 06:47:30;;;;;;;0.50;0.50;;;26.10;57.00;;;;;;6099327;23;20013;-67
2022/07/14 06:49:57;;;;;;;0.80;0.47;;;26.00;57.00;;;;;;6125322;23;20002;-67
2022/07/14 06:52:23;;;;;;;0.68;0.65;;;26.10;57.10;;;;;;6125265;23;20450;-66
2022/07/14 06:54:50;;;;;;;0.70;0.65;;;26.10;57.00;;;;;;6125465;23;20443;-67
2022/07/14 06:57:16;;;;;;;0.60;0.52;;;26.10;57.10;;;;;;6125404;23;20002;-66
2022/07/14 06:59:41;;;;;;;1.27;0.60;;;26.10;57.10;;;;;;6125552;23;20331;-67
2022/07/14 07:02:07;;;;;;;0.40;0.38;;;26.00;57.00;;;;;;6125255;23;20006;-66
2022/07/14 07:04:33;;;;;;;0.55;0.50;;;26.10;57.10;;;;;;6125271;23;20013;-67
2022/07/14 07:06:59;;;;;;;0.73;0.50;;;26.00;57.10;;;;;;6125549;23;20006;-67
2022/07/14 07:09:24;;;;;;;0.47;0.40;;;26.10;57.10;;;;;;6125328;23;20076;-67
2022/07/14 07:11:50;;;;;;;0.70;0.68;;;26.10;57.10;;;;;;6125288;23;20077;-67
2022/07/14 07:14:19;;;;;;;0.57;0.50;;;26.00;57.10;;;;;;6125471;23;20450;-67
2022/07/14 07:16:45;;;;;;;1.25;0.60;;;26.10;57.10;;;;;;6125116;23;20002;-66
2022/07/14 07:19:11;;;;;;;0.80;0.70;;;26.00;57.10;;;;;;6099631;23;20002;-67
2022/07/14 07:21:36;;;;;;;0.45;0.45;;;26.00;57.10;;;;;;6125134;23;20025;-67
2022/07/14 07:24:02;;;;;;;0.98;0.65;;;26.00;57.00;;;;;;6125351;23;20009;-66
2022/07/14 07:26:33;;;;;;;0.65;0.60;;;26.00;57.00;;;;;;6125212;23;20002;-67
2022/07/14 07:28:59;;;;;;;0.73;0.73;;;26.00;57.10;;;;;;6100562;23;20006;-67
2022/07/14 07:31:25;;;;;;;0.95;0.60;;;26.00;57.20;;;;;;6125145;23;20017;-67
2022/07/14 07:33:51;;;;;;;0.77;0.60;;;26.00;57.20;;;;;;6128752;23;20005;-67
2022/07/14 07:36:17;;;;;;;0.95;0.50;;;26.00;57.30;;;;;;6128690;23;20002;-67
2022/07/14 07:38:43;;;;;;;0.45;0.45;;;26.00;57.30;;;;;;6128437;23;20002;-67
2022/07/14 07:41:09;;;;;;;0.50;0.50;;;26.00;57.30;;;;;;6128445;23;19998;-66
2022/07/14 07:43:35;;;;;;;0.40;0.40;;;26.00;57.30;;;;;;6128308;23;20002;-67
2022/07/14 07:46:02;;;;;;;0.60;0.60;;;26.00;57.30;;;;;;6128243;23;20029;-66
2022/07/14 07:48:29;;;;;;;0.50;0.50;;;26.00;57.20;;;;;;6128353;23;20002;-67
2022/07/14 07:50:55;;;;;;;1.33;0.60;;;26.00;57.10;;;;;;6128406;23;20092;-67
2022/07/14 07:53:21;;;;;;;0.65;0.50;;;26.00;57.30;;;;;;6128019;23;20407;-67
2022/07/14 07:55:47;;;;;;;0.50;0.50;;;26.00;57.40;;;;;;6128541;23;20030;-67
2022/07/14 07:58:12;;;;;;;0.43;0.40;;;26.00;57.30;;;;;;6102769;23;20038;-67
2022/07/14 08:00:38;;;;;;;0.80;0.50;;;26.00;57.30;;;;;;6128021;23;20005;-67
2022/07/14 08:03:04;;;;;;;1.38;0.50;;;26.00;57.30;;;;;;6128488;23;20013;-67
2022/07/14 08:05:30;;;;;;;0.38;0.38;;;26.00;57.50;;;;;;6128181;23;20010;-67
2022/07/14 08:07:56;;;;;;;0.55;0.47;;;26.00;57.40;;;;;;6102662;23;20010;-67
2022/07/14 08:10:22;;;;;;;0.30;0.30;;;26.00;57.30;;;;;;6128280;23;20026;-67
2022/07/14 08:12:47;;;;;;;0.47;0.43;;;26.00;57.30;;;;;;6128259;23;20073;-67
2022/07/14 08:15:13;;;;;;;0.47;0.47;;;26.00;57.30;;;;;;6128277;23;20001;-67
2022/07/14 08:17:39;;;;;;;0.30;0.30;;;26.00;57.30;;;;;;6128193;23;20505;-67
2022/07/14 08:20:06;;;;;;;0.40;0.40;;;26.00;57.30;;;;;;6128245;23;20002;-67
2022/07/14 08:22:31;;;;;;;0.80;0.40;;;26.00;57.30;;;;;;6102411;23;20006;-66
2022/07/14 08:24:57;;;;;;;0.80;0.50;;;26.00;57.30;;;;;;6128431;23;20060;-67
2022/07/14 08:27:23;;;;;;;0.85;0.50;;;26.00;57.20;;;;;;6128236;23;20002;-67
2022/07/14 08:29:49;;;;;;;0.40;0.40;;;26.00;57.30;;;;;;6127927;23;20002;-67
2022/07/14 08:32:15;;;;;;;0.40;0.40;;;26.00;57.30;;;;;;6102779;23;20006;-67
2022/07/14 08:34:41;;;;;;;0.68;0.60;;;26.00;57.30;;;;;;6127958;23;20033;-67
2022/07/14 08:37:06;;;;;;;0.40;0.40;;;26.00;57.30;;;;;;6128576;23;20397;-67
2022/07/14 08:39:32;;;;;;;0.45;0.45;;;26.00;57.40;;;;;;6128107;23;20454;-67
2022/07/14 08:42:01;;;;;;;0.98;0.60;;;26.00;57.30;;;;;;6128209;23;20052;-67
2022/07/14 08:44:27;;;;;;;1.00;0.50;;;26.00;57.30;;;;;;6126790;23;20006;-67
2022/07/14 08:46:56;;;;;;;0.75;0.50;;;26.00;57.30;;;;;;6100558;23;20096;-67
2022/07/14 08:49:22;;;;;;;0.30;0.30;;;26.00;57.30;;;;;;6126681;23;20077;-67
2022/07/14 08:51:49;;;;;;;0.63;0.50;;;25.90;57.30;;;;;;6126196;23;20014;-67
2022/07/14 08:54:15;;;;;;;0.43;0.43;;;26.00;57.30;;;;;;6101140;23;20077;-67
2022/07/14 08:56:41;;;;;;;0.30;0.30;;;26.00;57.30;;;;;;6126620;23;20024;-67
2022/07/14 08:59:08;;;;;;;1.05;0.40;;;26.00;57.30;;;;;;6126383;23;19998;-67
2022/07/14 09:01:34;;;;;;;0.60;0.40;;;26.00;57.40;;;;;;6100858;23;20009;-67
2022/07/14 09:03:59;;;;;;;2.30;0.50;;;25.90;57.20;;;;;;6126687;23;20040;-67
2022/07/14 09:06:44;;;;;;;0.47;0.38;;;25.90;57.30;;;;;;6126637;23;20006;-67
2022/07/14 09:09:11;;;;;;;0.70;0.60;;;25.90;57.20;;;;;;6126458;23;20339;-67
2022/07/14 09:11:37;;;;;;;0.47;0.32;;;25.90;57.20;;;;;;6100190;23;20006;-67
2022/07/14 09:14:09;;;;;;;0.85;0.47;;;25.90;57.30;;;;;;6100592;23;20002;-67
2022/07/14 09:16:35;;;;;;;0.38;0.38;;;25.90;57.30;;;;;;6126330;23;20001;-67
2022/07/14 09:19:01;;;;;;;1.02;0.47;;;25.90;57.30;;;;;;6126592;23;20061;-67
2022/07/14 09:21:27;;;;;;;0.45;0.43;;;25.90;57.20;;;;;;6126310;23;20013;-67
2022/07/14 09:23:54;;;;;;;0.90;0.30;;;25.90;57.30;;;;;;6126330;23;20002;-67
2022/07/14 09:26:21;;;;;;;0.43;0.40;;;25.90;57.20;;;;;;6100591;23;20006;-68
2022/07/14 09:28:48;;;;;;;0.35;0.35;;;25.90;57.30;;;;;;6126161;23;20024;-67
2022/07/14 09:31:30;;;;;;;0.85;0.30;;;25.90;57.30;;;;;;6100715;23;20006;-67
2022/07/14 09:34:00;;;;;;;0.45;0.40;;;26.00;57.40;;;;;;6100370;23;20002;-68
2022/07/14 09:36:30;;;;;;;0.30;0.30;;;25.90;57.20;;;;;;6126259;23;20029;-67
2022/07/14 09:38:58;;;;;;;0.47;0.40;;;25.90;57.30;;;;;;6126297;23;20029;-67
2022/07/14 09:41:24;;;;;;;0.60;0.60;;;25.90;57.30;;;;;;6100180;23;20002;-67
2022/07/14 09:44:09;;;;;;;0.68;0.52;;;25.90;57.30;;;;;;6100364;23;20002;-67
2022/07/14 09:46:51;;;;;;;0.82;0.47;;;25.90;57.20;;;;;;6125928;23;20439;-67
2022/07/14 09:49:18;;;;;;;0.63;0.40;;;25.90;57.20;;;;;;6126256;23;19998;-67
2022/07/14 09:51:55;;;;;;;0.50;0.50;;;25.90;57.30;;;;;;6125765;23;20437;-67
2022/07/14 09:54:44;;;;;;;0.40;0.40;;;25.90;57.30;;;;;;6126053;23;20005;-67
2022/07/14 09:57:13;;;;;;;0.73;0.45;;;25.90;57.20;;;;;;6125926;23;20081;-67
2022/07/14 09:59:51;;;;;;;0.40;0.40;;;25.90;57.30;;;;;;6125967;23;19998;-67
2022/07/14 10:02:29;;;;;;;0.60;0.60;;;25.90;57.20;;;;;;6126158;23;20002;-67
2022/07/14 10:05:01;;;;;;;0.40;0.40;;;25.90;57.20;;;;;;6125864;23;20013;-67
2022/07/14 10:07:28;;;;;;;0.40;0.40;;;25.90;57.30;;;;;;6125986;23;20008;-67
2022/07/14 10:10:13;;;;;;;0.52;0.40;;;25.90;57.30;;;;;;6100008;23;20006;-67
2022/07/14 10:12:41;;;;;;;0.50;0.40;;;25.90;57.30;;;;;;6125552;23;20009;-67
2022/07/14 10:15:08;;;;;;;0.43;0.43;;;25.90;57.30;;;;;;6125878;23;20077;-67
2022/07/14 10:17:35;;;;;;;0.60;0.50;;;25.90;57.20;;;;;;6125778;23;20072;-67
2022/07/14 10:20:01;;;;;;;0.65;0.50;;;25.90;57.20;;;;;;6125773;23;20073;-67
2022/07/14 10:22:27;;;;;;;0.70;0.45;;;25.90;57.20;;;;;;6125895;23;20402;-67
2022/07/14 10:24:53;;;;;;;0.50;0.40;;;25.90;57.20;;;;;;6125269;23;20017;-67
2022/07/14 10:27:18;;;;;;;0.93;0.55;;;25.90;57.20;;;;;;6125772;23;20013;-67
2022/07/14 10:29:51;;;;;;;1.00;0.50;;;25.90;57.20;;;;;;6125720;23;20013;-67
2022/07/14 10:32:38;;;;;;;0.85;0.47;;;25.90;57.20;;;;;;6125803;23;20009;-67
2022/07/14 10:35:45;;;;;;;0.70;0.50;;;25.90;57.30;;;;;;6125781;23;20010;-67
2022/07/14 10:38:32;;;;;;;0.57;0.40;;;25.90;57.20;;;;;;6065249;23;20017;-67
2022/07/14 10:41:11;;;;;;;0.60;0.40;;;25.90;57.20;;;;;;6065066;23;20035;-67
2022/07/14 10:44:00;;;;;;;1.42;0.50;;;25.90;57.20;;;;;;6041093;23;20059;-68
2022/07/14 10:46:36;;;;;;;0.50;0.40;;;25.90;57.30;;;;;;6065118;23;20384;-67
2022/07/14 10:49:07;;;;;;;0.60;0.40;;;25.90;57.20;;;;;;6065139;23;20010;-67
2022/07/14 10:51:33;;;;;;;0.30;0.30;;;25.90;57.20;;;;;;6040846;23;20042;-67
2022/07/14 10:54:04;;;;;;;0.75;0.50;;;25.90;57.30;;;;;;6064466;23;20007;-67
2022/07/14 10:56:30;;;;;;;0.22;0.22;;;25.90;57.30;;;;;;6065117;23;20003;-67
2022/07/14 10:59:26;;;;;;;0.52;0.40;;;25.90;57.20;;;;;;6041130;23;20003;-67
2022/07/14 11:02:10;;;;;;;0.40;0.40;;;25.90;57.20;;;;;;6064692;23;20549;-67
2022/07/14 11:05:08;;;;;;;0.50;0.40;;;25.90;57.30;;;;;;6064947;23;20011;-67
2022/07/14 11:07:44;;;;;;;0.47;0.40;;;25.90;57.20;;;;;;6064340;23;20007;-67
2022/07/14 11:10:19;;;;;;;0.85;0.50;;;25.90;57.20;;;;;;6064872;23;20034;-67
2022/07/14 11:13:00;;;;;;;0.65;0.40;;;25.90;56.90;;;;;;6072926;23;20041;-67
2022/07/14 11:15:45;;;;;;;0.52;0.40;;;25.90;57.00;;;;;;6125379;23;20454;-67
2022/07/14 11:18:29;;;;;;;0.60;0.57;;;25.90;57.00;;;;;;6125341;23;20073;-67
2022/07/14 11:21:07;;;;;;;0.40;0.40;;;25.90;57.10;;;;;;6125352;23;20256;-67
2022/07/14 11:23:36;;;;;;;0.52;0.40;;;25.90;57.20;;;;;;6100449;23;20065;-67
2022/07/14 11:26:06;;;;;;;0.35;0.30;;;25.90;57.00;;;;;;6099248;23;20350;-67
2022/07/14 11:28:39;;;;;;;0.60;0.40;;;25.90;57.20;;;;;;6125372;23;20002;-67
2022/07/14 11:31:15;;;;;;;0.50;0.40;;;25.90;57.20;;;;;;6125358;23;20454;-67
2022/07/14 11:36:30;;;;;;;0.50;0.50;;;25.90;57.10;;;;;;6125044;23;20009;-67
2022/07/14 11:39:21;;;;;;;0.40;0.40;;;25.90;57.10;;;;;;6099570;23;20316;-67
2022/07/14 11:42:08;;;;;;;0.35;0.22;;;25.90;57.10;;;;;;6125008;23;20013;-67
2022/07/14 11:44:35;;;;;;;0.40;0.30;;;25.90;57.10;;;;;;6125227;23;20005;-67
2022/07/14 11:47:04;;;;;;;0.40;0.40;;;25.90;57.10;;;;;;6125448;23;20017;-67
2022/07/14 11:49:31;;;;;;;0.70;0.40;;;25.90;57.10;;;;;;6099344;23;20029;-67
2022/07/14 11:51:57;;;;;;;0.50;0.50;;;25.90;57.10;;;;;;6074810;23;20335;-67
2022/07/14 11:54:23;;;;;;;0.28;0.20;;;25.90;57.10;;;;;;6125280;23;20510;-67
2022/07/14 11:56:49;;;;;;;0.40;0.40;;;25.90;57.10;;;;;;6125027;23;20005;-67
2022/07/14 11:59:18;;;;;;;0.35;0.30;;;25.90;57.10;;;;;;6125172;23;19994;-67
2022/07/14 12:01:44;;;;;;;0.50;0.40;;;25.90;57.10;;;;;;6099618;23;20391;-68
2022/07/14 12:04:11;;;;;;;0.30;0.25;;;25.90;57.10;;;;;;6125118;23;20002;-67
2022/07/14 12:06:38;;;;;;;0.38;0.38;;;25.90;57.10;;;;;;6124909;23;20002;-67
2022/07/14 12:09:04;;;;;;;0.60;0.40;;;25.90;57.10;;;;;;6125064;23;20006;-67
2022/07/14 12:11:30;;;;;;;0.38;0.30;;;25.90;57.20;;;;;;6125065;23;20085;-67
2022/07/14 12:13:55;;;;;;;0.95;0.50;;;25.90;57.20;;;;;;6099119;23;19998;-67
2022/07/14 12:16:21;;;;;;;0.40;0.20;;;25.90;57.20;;;;;;6125145;23;20005;-67
2022/07/14 12:18:49;;;;;;;0.35;0.30;;;25.90;57.20;;;;;;6125901;23;20009;-67
2022/07/14 12:21:16;;;;;;;0.70;0.50;;;25.90;57.20;;;;;;6100828;23;20002;-67
2022/07/14 12:23:54;;;;;;;0.50;0.40;;;25.90;57.20;;;;;;6126995;23;20461;-67
2022/07/14 12:26:21;;;;;;;0.40;0.40;;;25.90;57.20;;;;;;6126933;23;20073;-67
2022/07/14 12:28:55;;;;;;;0.30;0.30;;;25.90;57.00;;;;;;6126673;23;20001;-67
2022/07/14 12:31:21;;;;;;;0.40;0.40;;;25.90;57.10;;;;;;6126791;23;20077;-67
2022/07/14 12:33:47;;;;;;;0.35;0.35;;;25.90;57.20;;;;;;6126654;23;20065;-67
2022/07/14 12:36:14;;;;;;;0.40;0.40;;;25.90;57.20;;;;;;6100811;23;20028;-67
2022/07/14 12:38:40;;;;;;;0.20;0.20;;;25.90;57.10;;;;;;6126602;23;19998;-67
2022/07/14 12:41:06;;;;;;;1.05;0.40;;;25.90;57.20;;;;;;6100958;23;20008;-67
2022/07/14 12:43:32;;;;;;;0.20;0.20;;;25.90;57.20;;;;;;6126739;23;20006;-67
2022/07/14 12:46:02;;;;;;;0.50;0.50;;;25.90;57.20;;;;;;6100830;23;20005;-67
2022/07/14 12:48:54;;;;;;;0.88;0.60;;;25.90;57.20;;;;;;6126557;23;20006;-67
2022/07/14 12:51:39;;;;;;;0.35;0.35;;;25.90;57.10;;;;;;6118256;23;20018;-67
2022/07/14 12:54:19;;;;;;;0.50;0.30;;;25.90;57.20;;;;;;6126686;23;20006;-67
2022/07/14 12:56:47;;;;;;;0.68;0.35;;;25.90;57.20;;;;;;6126741;23;20010;-67
2022/07/14 12:59:17;;;;;;;0.65;0.40;;;25.90;57.20;;;;;;6101060;23;20009;-67